Time;durP1;ratioP1;P1;durP2;ratioP2;P2;SDS_P1;SDS_P2;PMS_P1;PMS_P2;Temp;Humidity;BMP_temperature;BMP_pressure;BME280_temperature;BME280_humidity;BME280_pressure;Samples;Min_cycle;Max_cycle;Signal;HPM_P1;HPM_P2
2023/06/12 00:00:55;;;;;;;7.22;6.47;;;17.40;99.90;;;;;;5049141;28;20107;-71
2023/06/12 00:03:25;;;;;;;6.10;5.50;;;17.40;99.90;;;;;;5049784;28;20076;-71
2023/06/12 00:05:52;;;;;;;6.97;6.22;;;17.40;99.90;;;;;;5049108;28;20651;-71
2023/06/12 00:08:18;;;;;;;7.55;5.55;;;17.30;99.90;;;;;;5049619;28;20044;-71
2023/06/12 00:10:45;;;;;;;8.43;6.18;;;17.30;99.90;;;;;;5048856;28;20032;-71
2023/06/12 00:13:12;;;;;;;6.45;5.85;;;17.30;99.90;;;;;;5049066;28;20017;-71
2023/06/12 00:15:38;;;;;;;6.78;5.70;;;17.30;99.90;;;;;;5048799;28;20029;-71
2023/06/12 00:18:04;;;;;;;8.10;5.65;;;17.30;99.90;;;;;;5031605;28;20427;-70
2023/06/12 00:20:31;;;;;;;8.18;6.22;;;17.20;99.90;;;;;;5049311;28;20025;-70
2023/06/12 00:22:57;;;;;;;6.28;5.65;;;17.20;99.90;;;;;;5049238;28;20033;-70
2023/06/12 00:25:24;;;;;;;6.82;5.85;;;17.10;99.90;;;;;;5049174;28;20036;-71
2023/06/12 00:27:50;;;;;;;6.05;5.45;;;17.10;99.90;;;;;;5049070;28;20552;-71
2023/06/12 00:30:16;;;;;;;6.57;5.10;;;17.00;99.90;;;;;;5049570;28;20037;-71
2023/06/12 00:32:41;;;;;;;6.93;4.45;;;17.00;99.90;;;;;;5048726;28;20481;-71
2023/06/12 00:35:07;;;;;;;6.05;5.55;;;17.00;99.90;;;;;;5049689;28;20324;-70
2023/06/12 00:37:33;;;;;;;5.75;5.15;;;17.00;99.90;;;;;;5049314;28;20064;-73
2023/06/12 00:39:59;;;;;;;5.85;5.20;;;17.00;99.90;;;;;;5049160;28;20041;-71
2023/06/12 00:42:33;;;;;;;7.05;4.72;;;16.90;99.90;;;;;;5048244;28;20040;-71
2023/06/12 00:44:59;;;;;;;6.95;4.90;;;16.90;99.90;;;;;;5049678;28;20139;-71
2023/06/12 00:47:25;;;;;;;5.40;4.90;;;16.90;99.90;;;;;;5051224;28;20141;-71
2023/06/12 00:49:51;;;;;;;5.32;4.82;;;17.00;99.90;;;;;;5052775;28;20041;-70
2023/06/12 00:52:18;;;;;;;7.65;5.32;;;17.00;99.90;;;;;;5053460;28;20032;-71
2023/06/12 00:54:46;;;;;;;5.88;5.28;;;17.00;99.90;;;;;;5052870;28;20025;-71
2023/06/12 00:57:12;;;;;;;6.38;5.00;;;17.00;99.90;;;;;;5052910;28;20032;-71
2023/06/12 00:59:38;;;;;;;5.90;4.82;;;16.90;99.90;;;;;;5051188;28;20040;-71
2023/06/12 01:02:06;;;;;;;6.78;4.43;;;16.90;99.90;;;;;;5053294;28;20029;-71
2023/06/12 01:04:33;;;;;;;5.68;5.10;;;16.90;99.90;;;;;;5052956;28;20446;-71
2023/06/12 01:07:20;;;;;;;5.82;4.97;;;16.80;99.90;;;;;;5051960;28;20466;-71
2023/06/12 01:10:10;;;;;;;5.55;4.20;;;16.80;99.90;;;;;;5052397;28;20037;-71
2023/06/12 01:12:37;;;;;;;6.20;4.30;;;16.80;99.90;;;;;;5052668;28;20032;-73
2023/06/12 01:15:02;;;;;;;4.75;4.25;;;16.80;99.90;;;;;;5052550;28;20056;-71
2023/06/12 01:17:29;;;;;;;5.68;4.68;;;16.80;99.90;;;;;;5051222;28;20434;-71
2023/06/12 01:19:57;;;;;;;5.47;4.50;;;16.90;99.90;;;;;;5051999;28;20450;-71
2023/06/12 01:22:26;;;;;;;5.57;4.50;;;16.90;99.90;;;;;;5052357;28;20024;-71
2023/06/12 01:25:13;;;;;;;5.15;4.65;;;16.90;99.90;;;;;;5051990;28;20029;-71
2023/06/12 01:27:53;;;;;;;6.28;5.00;;;17.00;99.90;;;;;;5051694;28;20047;-71
2023/06/12 01:30:54;;;;;;;6.10;4.40;;;17.00;99.90;;;;;;5052525;28;20043;-70
2023/06/12 01:33:25;;;;;;;4.28;3.88;;;17.00;99.90;;;;;;5052594;28;20040;-71
2023/06/12 01:35:53;;;;;;;5.65;4.45;;;17.00;99.90;;;;;;5052190;28;20042;-71
2023/06/12 01:38:21;;;;;;;5.57;4.97;;;17.10;99.90;;;;;;5052661;28;20044;-71
2023/06/12 01:40:50;;;;;;;5.10;4.60;;;17.10;99.90;;;;;;5052043;28;20029;-71
2023/06/12 01:43:16;;;;;;;5.43;4.80;;;17.10;99.90;;;;;;5052194;28;20021;-71
2023/06/12 01:45:42;;;;;;;6.05;4.35;;;17.10;99.90;;;;;;5052154;28;20040;-71
2023/06/12 01:48:08;;;;;;;6.00;4.57;;;17.10;99.90;;;;;;5050996;28;20040;-71
2023/06/12 01:50:34;;;;;;;5.55;4.80;;;17.20;99.90;;;;;;5052500;28;20037;-70
2023/06/12 01:53:01;;;;;;;8.00;4.55;;;17.20;99.90;;;;;;5051898;28;20044;-70
2023/06/12 01:55:27;;;;;;;5.13;4.32;;;17.20;99.90;;;;;;5052395;28;20166;-70
2023/06/12 01:57:53;;;;;;;5.90;4.85;;;17.20;99.90;;;;;;5051565;28;20087;-71
2023/06/12 02:00:19;;;;;;;6.25;4.85;;;17.20;99.90;;;;;;5051635;28;20033;-70
2023/06/12 02:02:45;;;;;;;5.28;4.60;;;17.30;99.90;;;;;;5050277;28;20496;-71
2023/06/12 02:05:11;;;;;;;7.68;4.70;;;17.20;99.90;;;;;;5051962;28;20032;-71
2023/06/12 02:07:37;;;;;;;7.28;4.85;;;17.30;99.90;;;;;;5051972;28;20029;-71
2023/06/12 02:10:03;;;;;;;5.05;4.55;;;17.30;99.90;;;;;;5051539;28;20041;-70
2023/06/12 02:12:30;;;;;;;6.32;4.55;;;17.30;99.90;;;;;;5050801;28;20035;-70
2023/06/12 02:14:59;;;;;;;5.00;4.18;;;17.30;99.90;;;;;;5051295;28;20024;-71
2023/06/12 02:17:24;;;;;;;4.85;4.43;;;17.20;99.90;;;;;;5051919;28;20505;-70
2023/06/12 02:19:50;;;;;;;6.75;5.35;;;17.20;99.90;;;;;;5050067;28;20189;-70
2023/06/12 02:22:16;;;;;;;6.47;5.35;;;17.10;99.90;;;;;;5051430;28;20031;-70
2023/06/12 02:24:42;;;;;;;6.15;4.88;;;17.10;99.90;;;;;;5051292;28;20386;-73
2023/06/12 02:27:07;;;;;;;7.07;5.68;;;17.00;99.90;;;;;;5051563;28;20124;-70
2023/06/12 02:29:33;;;;;;;7.25;5.07;;;17.10;99.90;;;;;;5051207;28;20029;-70
2023/06/12 02:31:59;;;;;;;5.22;4.65;;;17.00;99.90;;;;;;5050816;28;20024;-70
2023/06/12 02:34:24;;;;;;;6.45;4.90;;;17.00;99.90;;;;;;5051175;28;20033;-71
2023/06/12 02:36:50;;;;;;;5.20;4.70;;;17.00;99.90;;;;;;5049722;28;20028;-70
2023/06/12 02:39:16;;;;;;;6.47;4.70;;;17.00;99.90;;;;;;5051029;28;20029;-70
2023/06/12 02:41:45;;;;;;;5.07;4.57;;;16.90;99.90;;;;;;5050648;28;20406;-73
2023/06/12 02:44:11;;;;;;;5.15;4.65;;;16.90;99.90;;;;;;5051223;28;20025;-70
2023/06/12 02:46:58;;;;;;;5.25;4.60;;;16.80;99.90;;;;;;5051209;28;20036;-70
2023/06/12 02:49:28;;;;;;;5.47;4.68;;;16.80;99.90;;;;;;5050987;28;20447;-70
2023/06/12 02:51:55;;;;;;;5.72;5.00;;;16.70;99.90;;;;;;5050381;28;20131;-70
2023/06/12 02:54:23;;;;;;;4.95;4.45;;;16.70;99.90;;;;;;5049359;28;20124;-70
2023/06/12 02:56:49;;;;;;;4.72;4.28;;;16.70;99.90;;;;;;5050330;28;20053;-70
2023/06/12 02:59:17;;;;;;;6.15;4.82;;;16.70;99.90;;;;;;5050714;28;20090;-71
2023/06/12 03:01:43;;;;;;;5.72;4.18;;;16.70;99.90;;;;;;5050529;28;20029;-73
2023/06/12 03:04:11;;;;;;;7.10;4.45;;;16.70;99.90;;;;;;5050614;28;20025;-70
2023/06/12 03:06:38;;;;;;;5.00;4.50;;;16.70;99.90;;;;;;5050753;28;20079;-70
2023/06/12 03:09:05;;;;;;;6.97;4.53;;;16.70;99.90;;;;;;5049974;28;20029;-70
2023/06/12 03:11:32;;;;;;;4.22;3.83;;;16.70;99.90;;;;;;5049438;28;20072;-70
2023/06/12 03:13:57;;;;;;;6.50;5.03;;;16.70;99.90;;;;;;5049863;28;20029;-70
2023/06/12 03:16:24;;;;;;;5.22;4.47;;;16.70;99.90;;;;;;5050684;28;20033;-70
2023/06/12 03:18:50;;;;;;;5.05;4.55;;;16.70;99.90;;;;;;5050078;28;20040;-70
2023/06/12 03:21:15;;;;;;;5.55;4.80;;;16.80;99.90;;;;;;5050797;28;20037;-70
2023/06/12 03:23:41;;;;;;;5.55;4.32;;;16.80;99.90;;;;;;5050484;28;20386;-70
2023/06/12 03:26:08;;;;;;;6.28;4.50;;;16.80;99.90;;;;;;5049443;28;20117;-70
2023/06/12 03:28:34;;;;;;;5.68;4.50;;;16.80;99.90;;;;;;5050428;28;20407;-70
2023/06/12 03:31:00;;;;;;;6.80;4.70;;;16.80;99.90;;;;;;5049662;28;20071;-70
2023/06/12 03:33:26;;;;;;;8.18;5.82;;;16.80;99.90;;;;;;5048968;28;20049;-70
2023/06/12 03:35:52;;;;;;;5.07;4.55;;;16.90;99.90;;;;;;5048405;28;20108;-69
2023/06/12 03:38:18;;;;;;;6.45;4.78;;;16.90;99.90;;;;;;5050397;28;20549;-70
2023/06/12 03:40:44;;;;;;;8.27;6.22;;;16.90;99.90;;;;;;5050256;28;20082;-70
2023/06/12 03:43:10;;;;;;;5.45;4.93;;;17.00;99.90;;;;;;5049733;28;20112;-70
2023/06/12 03:45:35;;;;;;;8.00;5.13;;;17.00;99.90;;;;;;5049964;28;20112;-70
2023/06/12 03:48:01;;;;;;;5.90;5.28;;;17.00;99.90;;;;;;5049485;28;20100;-69
2023/06/12 03:50:27;;;;;;;7.03;6.28;;;17.10;99.90;;;;;;5049794;28;20407;-70
2023/06/12 03:52:53;;;;;;;6.55;5.93;;;17.10;99.90;;;;;;5049360;28;20086;-70
2023/06/12 03:55:21;;;;;;;7.40;6.50;;;17.20;99.90;;;;;;5049473;28;20056;-70
2023/06/12 03:57:47;;;;;;;8.18;6.25;;;17.20;99.90;;;;;;5049686;28;20025;-73
2023/06/12 04:00:13;;;;;;;9.23;7.18;;;17.20;99.90;;;;;;5049818;28;20048;-70
2023/06/12 04:02:39;;;;;;;9.82;7.72;;;17.30;99.90;;;;;;5050315;28;20040;-70
2023/06/12 04:05:08;;;;;;;9.05;7.82;;;17.30;99.90;;;;;;5049256;28;20026;-71
2023/06/12 04:07:36;;;;;;;8.80;7.75;;;17.30;99.90;;;;;;5050147;28;20033;-70
2023/06/12 04:10:03;;;;;;;9.40;7.93;;;17.30;99.90;;;;;;5048883;28;20075;-70
2023/06/12 04:12:29;;;;;;;10.52;8.40;;;17.30;99.90;;;;;;5049811;28;20116;-70
2023/06/12 04:14:55;;;;;;;10.57;9.48;;;17.40;99.90;;;;;;5049229;28;20430;-71
2023/06/12 04:17:21;;;;;;;11.30;9.23;;;17.30;99.90;;;;;;5049360;28;20025;-70
2023/06/12 04:19:49;;;;;;;11.07;8.40;;;17.40;99.90;;;;;;5049526;28;20029;-72
2023/06/12 04:22:16;;;;;;;10.07;9.07;;;17.40;99.90;;;;;;5051109;28;20136;-70
2023/06/12 04:24:43;;;;;;;13.25;10.00;;;17.40;99.90;;;;;;5053428;28;20028;-70
2023/06/12 04:27:13;;;;;;;11.50;9.27;;;17.30;99.90;;;;;;5052743;28;20103;-71
2023/06/12 04:29:42;;;;;;;11.63;10.45;;;17.40;99.90;;;;;;5053301;28;20499;-71
2023/06/12 04:32:09;;;;;;;13.55;10.18;;;17.30;99.90;;;;;;5053062;28;20055;-71
2023/06/12 04:34:40;;;;;;;13.25;11.30;;;17.40;99.90;;;;;;5053281;28;20053;-70
2023/06/12 04:37:09;;;;;;;16.00;11.48;;;17.40;99.90;;;;;;5053194;28;20099;-70
2023/06/12 04:39:37;;;;;;;13.38;11.20;;;17.40;99.90;;;;;;5053454;28;20029;-70
2023/06/12 04:42:03;;;;;;;12.73;11.43;;;17.40;99.90;;;;;;5053040;28;20512;-69
2023/06/12 04:44:30;;;;;;;12.32;11.00;;;17.40;99.90;;;;;;5053323;28;20056;-70
2023/06/12 04:47:00;;;;;;;14.88;12.07;;;17.40;99.90;;;;;;5052837;28;20032;-71
2023/06/12 04:49:26;;;;;;;13.50;12.10;;;17.40;99.90;;;;;;5053032;28;20135;-70
2023/06/12 04:51:51;;;;;;;12.38;9.73;;;17.40;99.90;;;;;;5052808;28;20102;-73
2023/06/12 04:54:19;;;;;;;11.95;9.80;;;17.40;99.90;;;;;;5052755;28;20529;-71
2023/06/12 04:56:47;;;;;;;13.45;10.07;;;17.40;99.90;;;;;;5052979;28;20075;-70
2023/06/12 04:59:16;;;;;;;9.98;8.98;;;17.50;99.90;;;;;;5052537;28;20021;-71
2023/06/12 05:01:44;;;;;;;12.50;10.27;;;17.50;99.90;;;;;;5052895;28;20119;-70
2023/06/12 05:04:10;;;;;;;11.18;8.85;;;17.50;99.90;;;;;;5052456;28;20037;-70
2023/06/12 05:06:37;;;;;;;11.32;9.73;;;17.50;99.90;;;;;;5052740;28;20036;-70
2023/06/12 05:09:07;;;;;;;11.82;9.30;;;17.50;99.90;;;;;;5052343;28;20036;-71
2023/06/12 05:11:33;;;;;;;10.07;9.07;;;17.50;99.90;;;;;;5052783;28;20151;-71
2023/06/12 05:13:58;;;;;;;11.07;9.85;;;17.60;99.90;;;;;;5052335;28;20315;-70
2023/06/12 05:16:24;;;;;;;12.48;10.85;;;17.60;99.90;;;;;;5052580;28;20029;-71
2023/06/12 05:18:50;;;;;;;12.82;10.95;;;17.60;99.90;;;;;;5052823;28;20032;-71
2023/06/12 05:21:18;;;;;;;14.98;11.63;;;17.60;99.90;;;;;;5052223;28;20055;-71
2023/06/12 05:23:44;;;;;;;12.27;10.48;;;17.70;99.90;;;;;;5052698;28;20121;-70
2023/06/12 05:26:10;;;;;;;11.82;9.98;;;17.70;99.90;;;;;;5051664;28;20413;-71
2023/06/12 05:28:36;;;;;;;11.10;9.88;;;17.70;99.90;;;;;;5052395;28;20033;-70
2023/06/12 05:31:04;;;;;;;11.68;10.02;;;17.70;99.90;;;;;;5051947;28;20028;-70
2023/06/12 05:33:30;;;;;;;18.30;11.20;;;17.80;99.90;;;;;;5051311;28;20106;-70
2023/06/12 05:35:56;;;;;;;10.27;9.25;;;17.80;99.90;;;;;;5050937;28;20476;-71
2023/06/12 05:38:22;;;;;;;12.43;10.75;;;17.80;99.90;;;;;;5052850;28;20040;-71
2023/06/12 05:40:47;;;;;;;12.10;10.18;;;17.80;99.90;;;;;;5052589;28;20057;-70
2023/06/12 05:43:13;;;;;;;13.68;9.75;;;17.80;99.90;;;;;;5052283;28;20680;-70
2023/06/12 05:45:39;;;;;;;12.25;10.40;;;17.90;99.90;;;;;;5052630;28;20489;-71
2023/06/12 05:48:05;;;;;;;11.02;9.60;;;17.90;99.90;;;;;;5052045;28;20029;-71
2023/06/12 05:50:31;;;;;;;11.38;8.80;;;18.00;99.90;;;;;;5052029;28;20037;-71
2023/06/12 05:52:57;;;;;;;12.18;10.25;;;18.00;99.90;;;;;;5050356;28;20047;-71
2023/06/12 05:55:22;;;;;;;15.15;10.68;;;18.00;99.90;;;;;;5051317;28;20033;-70
2023/06/12 05:57:48;;;;;;;11.60;10.40;;;18.00;99.90;;;;;;5051692;28;20379;-70
2023/06/12 06:00:15;;;;;;;11.55;9.85;;;18.00;99.90;;;;;;5051047;28;20033;-71
2023/06/12 06:02:42;;;;;;;14.52;11.00;;;18.10;99.90;;;;;;5051886;28;20025;-70
2023/06/12 06:05:11;;;;;;;11.60;9.95;;;18.00;99.90;;;;;;5051388;28;20024;-71
2023/06/12 06:07:38;;;;;;;10.95;9.85;;;18.00;99.90;;;;;;5050278;28;20094;-70
2023/06/12 06:10:05;;;;;;;19.55;11.38;;;18.10;99.90;;;;;;5051326;28;20110;-70
2023/06/12 06:12:31;;;;;;;12.77;10.63;;;18.10;99.90;;;;;;5051292;28;20110;-70
2023/06/12 06:14:57;;;;;;;13.95;10.48;;;18.10;99.90;;;;;;5050841;28;20376;-73
2023/06/12 06:17:23;;;;;;;13.95;10.35;;;18.10;99.90;;;;;;5051568;28;20047;-70
2023/06/12 06:19:49;;;;;;;13.25;9.88;;;18.00;99.90;;;;;;5051179;28;20040;-70
2023/06/12 06:22:18;;;;;;;10.93;8.98;;;18.00;99.90;;;;;;5050922;28;20029;-70
2023/06/12 06:24:44;;;;;;;12.98;9.70;;;18.00;99.90;;;;;;5051424;28;20020;-70
2023/06/12 06:27:10;;;;;;;12.65;10.20;;;18.00;99.90;;;;;;5050603;28;20041;-71
2023/06/12 06:29:36;;;;;;;13.93;11.07;;;17.90;99.90;;;;;;5051213;28;20040;-70
2023/06/12 06:32:01;;;;;;;18.25;11.68;;;17.90;99.90;;;;;;5050408;28;20090;-71
2023/06/12 06:34:28;;;;;;;13.35;11.07;;;17.90;99.90;;;;;;5050901;28;20029;-70
2023/06/12 06:36:54;;;;;;;19.02;13.70;;;17.90;99.90;;;;;;5051345;28;20021;-71
2023/06/12 06:39:19;;;;;;;13.98;12.30;;;17.90;99.90;;;;;;5050650;28;20312;-71
2023/06/12 06:41:45;;;;;;;14.45;11.95;;;17.90;99.90;;;;;;5049832;28;20025;-70
2023/06/12 06:44:11;;;;;;;15.82;12.80;;;18.00;99.90;;;;;;5050541;28;20332;-71
2023/06/12 06:46:36;;;;;;;16.08;14.30;;;18.00;99.90;;;;;;5050852;28;20150;-70
2023/06/12 06:49:03;;;;;;;16.15;12.95;;;18.00;99.90;;;;;;5050429;28;20086;-71
2023/06/12 06:51:30;;;;;;;14.25;12.65;;;18.00;99.90;;;;;;5051000;28;20029;-71
2023/06/12 06:53:57;;;;;;;15.07;13.45;;;18.00;99.90;;;;;;5051013;28;20025;-71
2023/06/12 06:56:23;;;;;;;18.10;15.90;;;18.10;99.90;;;;;;5050442;28;20033;-71
2023/06/12 06:58:48;;;;;;;18.70;14.82;;;18.00;99.90;;;;;;5050612;28;20462;-70
2023/06/12 07:01:15;;;;;;;16.35;14.65;;;18.10;99.90;;;;;;5050017;28;20119;-71
2023/06/12 07:03:41;;;;;;;20.30;16.30;;;18.10;99.90;;;;;;5051114;28;20057;-70
2023/06/12 07:06:07;;;;;;;19.90;16.10;;;18.20;99.90;;;;;;5050435;28;20072;-71
2023/06/12 07:08:33;;;;;;;20.35;15.35;;;18.30;99.90;;;;;;5050646;28;20400;-70
2023/06/12 07:10:59;;;;;;;16.23;14.52;;;18.20;99.90;;;;;;5048910;28;20082;-73
2023/06/12 07:13:25;;;;;;;18.30;15.85;;;18.20;99.90;;;;;;5050829;28;20110;-70
2023/06/12 07:15:51;;;;;;;19.98;15.98;;;18.20;99.90;;;;;;5050538;28;20033;-70
2023/06/12 07:18:17;;;;;;;16.92;15.15;;;18.20;99.90;;;;;;5050055;28;20037;-70
2023/06/12 07:20:43;;;;;;;18.60;16.48;;;18.20;99.90;;;;;;5050444;28;20025;-70
2023/06/12 07:23:09;;;;;;;17.42;15.35;;;18.10;99.90;;;;;;5049588;28;20416;-71
2023/06/12 07:25:34;;;;;;;17.10;15.30;;;18.10;99.90;;;;;;5050418;28;20028;-70
2023/06/12 07:28:00;;;;;;;18.92;15.63;;;18.10;99.90;;;;;;5049263;28;20128;-73
2023/06/12 07:30:26;;;;;;;17.13;15.23;;;18.10;99.90;;;;;;5049893;28;20105;-71
2023/06/12 07:32:52;;;;;;;15.40;13.80;;;18.10;99.90;;;;;;5050240;28;20323;-70
2023/06/12 07:35:18;;;;;;;16.25;14.32;;;18.20;99.90;;;;;;5049645;28;20025;-71
2023/06/12 07:37:45;;;;;;;17.45;15.55;;;18.30;99.90;;;;;;5049715;28;20025;-71
2023/06/12 07:40:12;;;;;;;19.10;13.82;;;18.30;99.90;;;;;;5047690;28;20414;-71
2023/06/12 07:42:38;;;;;;;18.60;15.35;;;18.40;99.90;;;;;;5049832;28;20025;-70
2023/06/12 07:45:04;;;;;;;17.95;14.00;;;18.40;99.90;;;;;;5049476;28;20052;-71
2023/06/12 07:47:30;;;;;;;16.60;14.10;;;18.30;99.90;;;;;;5049572;28;20442;-71
2023/06/12 07:49:58;;;;;;;18.70;14.10;;;18.40;99.90;;;;;;5048325;28;20033;-70
2023/06/12 07:52:24;;;;;;;15.50;13.90;;;18.40;99.90;;;;;;5049332;28;20029;-71
2023/06/12 07:54:50;;;;;;;14.85;12.73;;;18.40;99.90;;;;;;5049689;28;20052;-70
2023/06/12 07:57:16;;;;;;;14.90;13.32;;;18.50;99.90;;;;;;5053050;28;20017;-71
2023/06/12 07:59:44;;;;;;;14.23;12.82;;;18.50;99.90;;;;;;5056614;28;20119;-71
2023/06/12 08:02:10;;;;;;;16.00;14.40;;;18.60;99.90;;;;;;5055785;28;20029;-70
2023/06/12 08:04:40;;;;;;;17.17;15.30;;;18.60;99.90;;;;;;5056550;28;20060;-70
2023/06/12 08:07:10;;;;;;;16.13;13.65;;;18.70;99.90;;;;;;5038187;28;20032;-71
2023/06/12 08:09:40;;;;;;;15.45;13.38;;;18.70;99.90;;;;;;5056225;28;20110;-71
2023/06/12 08:12:07;;;;;;;17.65;12.90;;;18.80;99.90;;;;;;5055590;28;20400;-71
2023/06/12 08:14:32;;;;;;;14.27;12.82;;;18.90;99.90;;;;;;5056308;28;20029;-70
2023/06/12 08:16:58;;;;;;;14.00;12.70;;;19.00;99.90;;;;;;5056083;28;20131;-70
2023/06/12 08:19:24;;;;;;;15.82;13.32;;;19.00;99.90;;;;;;5037554;28;20210;-70
2023/06/12 08:21:50;;;;;;;14.27;12.77;;;19.00;99.90;;;;;;5056198;28;20025;-70
2023/06/12 08:24:16;;;;;;;15.63;13.77;;;19.00;99.90;;;;;;5055342;28;20429;-70
2023/06/12 08:26:42;;;;;;;15.77;12.77;;;19.00;99.90;;;;;;5055916;28;20056;-70
2023/06/12 08:29:08;;;;;;;15.98;13.68;;;19.00;99.90;;;;;;5055433;28;20034;-71
2023/06/12 08:31:34;;;;;;;17.67;14.13;;;19.00;99.90;;;;;;5056222;28;20033;-70
2023/06/12 08:34:00;;;;;;;16.17;12.45;;;19.00;99.90;;;;;;5056239;28;20392;-70
2023/06/12 08:36:26;;;;;;;15.00;13.18;;;19.00;99.90;;;;;;5054136;28;20025;-70
2023/06/12 08:38:52;;;;;;;16.70;12.88;;;19.00;99.90;;;;;;5055994;28;20021;-70
2023/06/12 08:41:24;;;;;;;16.08;13.75;;;19.00;99.90;;;;;;5055441;28;20017;-70
2023/06/12 08:43:51;;;;;;;14.98;13.07;;;19.10;99.90;;;;;;5055902;28;20103;-70
2023/06/12 08:46:17;;;;;;;16.55;13.75;;;19.10;99.90;;;;;;5055182;28;20059;-71
2023/06/12 08:48:45;;;;;;;17.17;14.35;;;19.20;99.90;;;;;;5056003;28;20041;-70
2023/06/12 08:51:11;;;;;;;16.63;13.68;;;19.20;99.90;;;;;;5055440;28;20057;-71
2023/06/12 08:53:37;;;;;;;19.17;14.05;;;19.20;99.90;;;;;;5056104;28;20372;-70
2023/06/12 08:56:03;;;;;;;15.25;13.30;;;19.30;99.90;;;;;;5056079;28;20090;-70
2023/06/12 08:58:48;;;;;;;17.23;14.25;;;19.40;99.90;;;;;;5055202;28;20454;-71
2023/06/12 09:01:14;;;;;;;14.95;12.43;;;19.40;99.90;;;;;;5055387;28;20462;-71
2023/06/12 09:03:47;;;;;;;14.70;12.38;;;19.40;99.90;;;;;;5055439;28;20063;-71
2023/06/12 09:06:18;;;;;;;14.15;11.35;;;19.50;99.90;;;;;;5055403;28;20132;-70
2023/06/12 09:08:45;;;;;;;15.35;12.50;;;19.60;99.90;;;;;;5051830;28;20481;-71
2023/06/12 09:11:10;;;;;;;14.25;11.77;;;19.50;99.90;;;;;;5052172;28;20497;-71
2023/06/12 09:13:43;;;;;;;16.63;12.93;;;19.60;99.90;;;;;;5052049;28;20053;-71
2023/06/12 09:16:13;;;;;;;16.92;12.75;;;19.60;99.90;;;;;;5051466;28;20029;-73
2023/06/12 09:18:52;;;;;;;14.05;12.13;;;19.60;99.90;;;;;;5050285;28;20355;-70
2023/06/12 09:21:18;;;;;;;17.95;13.32;;;19.60;99.90;;;;;;5051394;28;20124;-71
2023/06/12 09:23:45;;;;;;;15.15;12.55;;;19.70;99.90;;;;;;5051575;28;20156;-71
2023/06/12 09:26:15;;;;;;;16.10;12.77;;;19.70;99.90;;;;;;5050558;28;20108;-71
2023/06/12 09:28:44;;;;;;;22.38;13.70;;;19.70;99.90;;;;;;5051531;28;20025;-71
2023/06/12 09:31:11;;;;;;;19.67;14.48;;;19.70;99.90;;;;;;5051243;28;20033;-71
2023/06/12 09:33:40;;;;;;;21.75;15.32;;;19.70;99.90;;;;;;5051796;28;20055;-71
2023/06/12 09:36:10;;;;;;;21.63;14.73;;;19.80;99.90;;;;;;5051880;28;20032;-72
2023/06/12 09:38:36;;;;;;;20.40;16.67;;;19.80;99.90;;;;;;5051695;28;20029;-71
2023/06/12 09:41:03;;;;;;;24.90;18.33;;;19.90;99.90;;;;;;5051242;28;20094;-70
2023/06/12 09:43:30;;;;;;;24.38;18.30;;;19.90;99.90;;;;;;5051002;28;20063;-71
2023/06/12 09:45:58;;;;;;;24.08;17.50;;;20.00;99.90;;;;;;5051738;28;20026;-71
2023/06/12 09:48:24;;;;;;;22.00;16.83;;;20.10;99.90;;;;;;5050913;28;20060;-71
2023/06/12 09:50:50;;;;;;;25.30;17.95;;;20.10;99.90;;;;;;5051498;28;20028;-71
2023/06/12 09:53:22;;;;;;;21.95;16.35;;;20.10;99.90;;;;;;5050701;28;20419;-71
2023/06/12 09:55:48;;;;;;;22.83;17.10;;;20.00;99.90;;;;;;5051914;28;20568;-71
2023/06/12 09:58:17;;;;;;;22.20;16.08;;;20.00;99.90;;;;;;5049404;28;20339;-71
2023/06/12 10:00:43;;;;;;;23.48;15.98;;;20.00;99.90;;;;;;5051311;28;20017;-70
2023/06/12 10:03:14;;;;;;;17.63;13.63;;;20.00;99.90;;;;;;5051124;28;20372;-73
2023/06/12 10:05:51;;;;;;;18.60;13.68;;;20.10;99.90;;;;;;5051747;28;20028;-71
2023/06/12 10:08:18;;;;;;;15.25;11.85;;;20.10;99.90;;;;;;5050768;28;20125;-71
2023/06/12 10:10:45;;;;;;;18.50;12.70;;;20.20;99.90;;;;;;5049883;28;20159;-70
2023/06/12 10:13:12;;;;;;;14.68;12.38;;;20.20;99.90;;;;;;5050690;28;20107;-73
2023/06/12 10:15:39;;;;;;;14.15;11.02;;;20.10;99.90;;;;;;5051203;28;20052;-71
2023/06/12 10:18:10;;;;;;;13.23;10.80;;;20.10;99.90;;;;;;5050975;28;20104;-71
2023/06/12 10:20:37;;;;;;;13.25;9.32;;;20.10;99.90;;;;;;5049209;28;20047;-71
2023/06/12 10:23:03;;;;;;;24.38;9.55;;;19.90;99.90;;;;;;5049863;28;20029;-71
2023/06/12 10:25:31;;;;;;;18.42;8.85;;;20.00;99.90;;;;;;5049235;28;20123;-71
2023/06/12 10:27:58;;;;;;;10.90;7.60;;;20.00;99.90;;;;;;5049334;28;20128;-71
2023/06/12 10:30:23;;;;;;;9.60;7.47;;;19.90;99.90;;;;;;5050462;28;20041;-71
2023/06/12 10:32:49;;;;;;;8.13;6.85;;;19.90;99.90;;;;;;5050662;28;20025;-71
2023/06/12 10:35:31;;;;;;;8.20;6.18;;;19.90;99.90;;;;;;5050236;28;20459;-71
2023/06/12 10:37:57;;;;;;;9.25;5.93;;;19.80;99.90;;;;;;5051191;28;20029;-70
2023/06/12 10:40:23;;;;;;;10.98;4.72;;;19.90;99.90;;;;;;5050082;28;20381;-72
2023/06/12 10:42:52;;;;;;;5.32;4.13;;;19.90;99.90;;;;;;5051094;28;20038;-71
2023/06/12 10:45:28;;;;;;;5.63;4.10;;;19.90;99.90;;;;;;5050072;28;20021;-71
2023/06/12 10:48:03;;;;;;;3.60;2.65;;;19.90;99.90;;;;;;5051115;28;20383;-70
2023/06/12 10:50:30;;;;;;;5.97;3.72;;;19.90;99.90;;;;;;5050320;28;20166;-71
2023/06/12 10:52:59;;;;;;;4.65;3.42;;;19.80;99.90;;;;;;5050862;28;20021;-70
2023/06/12 10:55:28;;;;;;;7.07;3.38;;;19.90;99.90;;;;;;5049840;28;20032;-71
2023/06/12 10:57:59;;;;;;;4.65;3.05;;;20.00;99.90;;;;;;5051205;28;20025;-70
2023/06/12 11:00:47;;;;;;;3.80;2.63;;;20.10;99.90;;;;;;5050175;28;20029;-71
2023/06/12 11:03:16;;;;;;;3.55;2.42;;;20.20;99.90;;;;;;5050465;28;20137;-73
2023/06/12 11:06:13;;;;;;;3.85;2.17;;;20.30;99.90;;;;;;5050768;28;20350;-71
2023/06/12 11:08:42;;;;;;;4.35;2.05;;;20.40;99.90;;;;;;5048648;28;20048;-70
2023/06/12 11:11:09;;;;;;;3.47;2.15;;;20.60;99.90;;;;;;5050337;28;20055;-71
2023/06/12 11:13:39;;;;;;;3.67;2.13;;;20.80;99.90;;;;;;5049758;28;20029;-71
2023/06/12 11:16:05;;;;;;;2.55;1.85;;;20.80;99.90;;;;;;5050089;28;20361;-71
2023/06/12 11:18:31;;;;;;;1.90;1.80;;;20.90;99.90;;;;;;5050052;28;20108;-71
2023/06/12 11:20:57;;;;;;;2.75;2.20;;;20.70;99.90;;;;;;5050277;28;20021;-71
2023/06/12 11:23:24;;;;;;;4.55;1.83;;;20.70;99.90;;;;;;5049076;28;20383;-71
2023/06/12 11:25:53;;;;;;;3.30;1.58;;;20.50;99.90;;;;;;5049678;28;20033;-70
2023/06/12 11:28:25;;;;;;;2.55;1.92;;;20.50;99.90;;;;;;5047939;28;20119;-71
2023/06/12 11:30:56;;;;;;;3.15;2.10;;;20.40;99.90;;;;;;5049764;28;20075;-70
2023/06/12 11:33:22;;;;;;;2.55;1.90;;;20.30;99.90;;;;;;5049137;28;20033;-71
2023/06/12 11:35:50;;;;;;;2.47;1.77;;;20.20;99.90;;;;;;5050285;28;20032;-71
2023/06/12 11:38:21;;;;;;;2.80;1.83;;;20.00;99.90;;;;;;5049559;28;20025;-73
2023/06/12 11:40:49;;;;;;;3.53;1.88;;;20.10;99.90;;;;;;5049828;28;20063;-71
2023/06/12 11:43:19;;;;;;;2.60;2.13;;;20.00;99.90;;;;;;5049169;28;20029;-73
2023/06/12 11:45:45;;;;;;;3.72;1.77;;;20.00;99.90;;;;;;5049674;28;20036;-71
2023/06/12 11:48:16;;;;;;;3.88;2.13;;;19.90;99.90;;;;;;5049666;28;20025;-71
2023/06/12 11:50:46;;;;;;;3.53;2.00;;;19.80;99.90;;;;;;5050046;28;20090;-71
2023/06/12 11:53:13;;;;;;;5.93;2.05;;;19.80;99.90;;;;;;5049918;28;20155;-71
2023/06/12 11:55:38;;;;;;;4.82;2.55;;;19.60;99.90;;;;;;5049103;28;20021;-70
2023/06/12 11:58:05;;;;;;;4.45;2.55;;;19.60;99.90;;;;;;5050157;28;20082;-70
2023/06/12 12:00:33;;;;;;;4.03;2.58;;;19.50;99.90;;;;;;5049059;28;20048;-71
2023/06/12 12:03:02;;;;;;;6.10;2.80;;;19.40;99.90;;;;;;5049808;28;20454;-70
2023/06/12 12:05:33;;;;;;;3.58;2.00;;;19.30;99.90;;;;;;5049074;28;20025;-70
2023/06/12 12:08:03;;;;;;;6.80;2.80;;;19.40;99.90;;;;;;5049795;28;20027;-70
2023/06/12 12:10:30;;;;;;;3.20;2.10;;;19.30;99.90;;;;;;5049704;28;20032;-71
2023/06/12 12:13:01;;;;;;;3.33;2.80;;;19.20;99.90;;;;;;5049602;28;20025;-70
2023/06/12 12:15:31;;;;;;;4.03;2.45;;;19.30;99.90;;;;;;5048839;28;20033;-71
2023/06/12 12:17:58;;;;;;;6.75;3.63;;;19.30;99.90;;;;;;5049765;28;20055;-70
2023/06/12 12:20:25;;;;;;;6.22;3.45;;;19.30;99.90;;;;;;5049056;28;20120;-70
2023/06/12 12:22:57;;;;;;;4.47;3.58;;;19.20;99.90;;;;;;5049808;28;20025;-70
2023/06/12 12:25:30;;;;;;;3.92;3.03;;;19.30;99.90;;;;;;5049145;28;20056;-70
2023/06/12 12:27:59;;;;;;;5.30;2.80;;;19.10;99.90;;;;;;5049646;28;20049;-70
2023/06/12 12:30:26;;;;;;;9.75;3.30;;;19.10;99.90;;;;;;5049217;28;20033;-70
2023/06/12 12:32:53;;;;;;;5.07;2.70;;;19.10;99.90;;;;;;5049846;28;20029;-70
2023/06/12 12:35:20;;;;;;;3.67;2.20;;;19.00;99.90;;;;;;5047825;28;20405;-73
2023/06/12 12:37:47;;;;;;;4.63;3.05;;;19.00;99.90;;;;;;5049436;28;20458;-69
2023/06/12 12:40:14;;;;;;;4.53;2.33;;;19.00;99.90;;;;;;5049111;28;20453;-69